Time;durP1;ratioP1;P1;durP2;ratioP2;P2;SDS_P1;SDS_P2;PMS_P1;PMS_P2;Temp;Humidity;BMP_temperature;BMP_pressure;BME280_temperature;BME280_humidity;BME280_pressure;Samples;Min_cycle;Max_cycle;Signal;HPM_P1;HPM_P2
2023/05/13 00:00:37;;;;;;;9.60;6.45;;;13.90;99.90;;;;;;5057414;28;20107;-64
2023/05/13 00:03:02;;;;;;;10.38;6.60;;;13.80;99.90;;;;;;5052126;28;20029;-64
2023/05/13 00:05:28;;;;;;;9.52;6.32;;;13.80;99.90;;;;;;5051967;28;20039;-64
2023/05/13 00:07:53;;;;;;;12.32;6.28;;;13.80;99.90;;;;;;5051227;28;20456;-64
2023/05/13 00:10:19;;;;;;;11.65;7.10;;;13.80;99.90;;;;;;5032244;28;20045;-65
2023/05/13 00:12:45;;;;;;;11.20;6.03;;;13.80;99.90;;;;;;5049445;28;20029;-64
2023/05/13 00:15:11;;;;;;;8.98;6.57;;;13.80;99.90;;;;;;5046976;28;20041;-65
2023/05/13 00:17:37;;;;;;;10.18;6.60;;;13.80;99.90;;;;;;5049183;28;20037;-64
2023/05/13 00:20:03;;;;;;;14.25;6.88;;;13.70;99.90;;;;;;5033901;28;20032;-64
2023/05/13 00:22:29;;;;;;;13.38;7.03;;;13.70;99.90;;;;;;5031944;28;20037;-64
2023/05/13 00:24:54;;;;;;;12.20;6.60;;;13.70;99.90;;;;;;5050619;28;20040;-65
2023/05/13 00:27:20;;;;;;;11.82;7.35;;;13.70;99.90;;;;;;5032441;28;20048;-65
2023/05/13 00:29:45;;;;;;;10.98;6.90;;;13.80;99.90;;;;;;5032234;28;20068;-65
2023/05/13 00:32:11;;;;;;;9.88;6.82;;;13.60;99.90;;;;;;5049839;28;20044;-65
2023/05/13 00:34:36;;;;;;;10.10;7.05;;;13.60;99.90;;;;;;5031739;28;20041;-65
2023/05/13 00:37:02;;;;;;;10.35;7.18;;;13.60;99.90;;;;;;5048953;28;20025;-65
2023/05/13 00:39:28;;;;;;;12.25;6.82;;;13.60;99.90;;;;;;5050360;28;20119;-65
2023/05/13 00:41:53;;;;;;;10.00;6.97;;;13.60;99.90;;;;;;5048403;28;20041;-65
2023/05/13 00:44:19;;;;;;;10.27;7.13;;;13.60;99.90;;;;;;5049477;28;20642;-65
2023/05/13 00:46:45;;;;;;;14.75;7.50;;;13.50;99.90;;;;;;5027790;28;20087;-65
2023/05/13 00:49:10;;;;;;;13.82;7.03;;;13.50;99.90;;;;;;5050573;28;20127;-64
2023/05/13 00:51:36;;;;;;;12.13;7.35;;;13.50;99.90;;;;;;5050461;28;20056;-65
2023/05/13 00:54:03;;;;;;;10.10;7.47;;;13.50;99.90;;;;;;5050092;28;20045;-64
2023/05/13 00:56:28;;;;;;;12.13;7.55;;;13.40;99.90;;;;;;5051786;28;20051;-65
2023/05/13 00:58:54;;;;;;;13.10;7.75;;;13.50;99.90;;;;;;5049797;28;20033;-64
2023/05/13 01:01:23;;;;;;;11.32;7.28;;;13.40;99.90;;;;;;5048301;28;20068;-64
2023/05/13 01:03:58;;;;;;;10.55;7.35;;;13.40;99.90;;;;;;5032093;28;20079;-64
2023/05/13 01:06:39;;;;;;;9.32;7.25;;;13.30;99.90;;;;;;5011993;28;20053;-65
2023/05/13 01:09:12;;;;;;;9.63;7.65;;;13.40;99.90;;;;;;5025760;28;20044;-65
2023/05/13 01:11:40;;;;;;;11.77;7.85;;;13.30;99.90;;;;;;5049045;28;20037;-65
2023/05/13 01:14:21;;;;;;;10.98;7.95;;;13.30;99.90;;;;;;5031421;28;20037;-65
2023/05/13 01:17:13;;;;;;;14.05;7.82;;;13.30;99.90;;;;;;5030567;28;20037;-65
2023/05/13 01:19:45;;;;;;;14.95;7.78;;;13.30;99.90;;;;;;5048519;28;20040;-65
2023/05/13 01:22:11;;;;;;;10.40;7.65;;;13.30;99.90;;;;;;5031112;28;20099;-65
2023/05/13 01:24:37;;;;;;;9.88;7.85;;;13.20;99.90;;;;;;5050707;28;20033;-65
2023/05/13 01:27:03;;;;;;;12.27;7.57;;;13.20;99.90;;;;;;5032378;28;20037;-64
2023/05/13 01:29:29;;;;;;;13.00;8.13;;;13.20;99.90;;;;;;5046613;28;20635;-64
2023/05/13 01:31:57;;;;;;;11.05;8.80;;;13.20;99.90;;;;;;5052822;28;20041;-64
2023/05/13 01:34:23;;;;;;;10.73;8.07;;;13.20;99.90;;;;;;5030144;28;20049;-64
2023/05/13 01:36:49;;;;;;;11.82;8.32;;;13.20;99.90;;;;;;5049378;28;20090;-64
2023/05/13 01:39:17;;;;;;;12.93;7.95;;;13.20;99.90;;;;;;5050297;28;20033;-65
2023/05/13 01:41:43;;;;;;;12.48;7.45;;;13.20;99.90;;;;;;5032673;28;20075;-64
2023/05/13 01:44:09;;;;;;;10.73;8.07;;;13.20;99.90;;;;;;5043478;28;20037;-64
2023/05/13 01:46:37;;;;;;;13.43;8.25;;;13.10;99.90;;;;;;5052932;28;20032;-65
2023/05/13 01:49:03;;;;;;;14.52;8.13;;;13.20;99.90;;;;;;5050064;28;20041;-64
2023/05/13 01:51:29;;;;;;;12.30;8.35;;;13.10;99.90;;;;;;5054258;28;20116;-64
2023/05/13 01:53:54;;;;;;;14.35;8.52;;;13.10;99.90;;;;;;5050160;28;20487;-65
2023/05/13 01:56:21;;;;;;;12.85;8.13;;;13.10;99.90;;;;;;5028916;28;20041;-65
2023/05/13 01:58:46;;;;;;;14.02;8.48;;;13.10;99.90;;;;;;5049829;28;20069;-65
2023/05/13 02:01:12;;;;;;;12.75;9.13;;;13.00;99.90;;;;;;5047973;28;20077;-65
2023/05/13 02:03:37;;;;;;;11.60;8.10;;;13.00;99.90;;;;;;5031746;28;20041;-64
2023/05/13 02:06:03;;;;;;;11.98;8.77;;;13.00;99.90;;;;;;5049217;28;20064;-65
2023/05/13 02:08:29;;;;;;;10.63;8.23;;;13.00;99.90;;;;;;5029175;28;20399;-64
2023/05/13 02:10:56;;;;;;;12.20;8.60;;;13.00;99.90;;;;;;5029428;28;20041;-65
2023/05/13 02:13:22;;;;;;;11.35;8.43;;;13.00;99.90;;;;;;5051750;28;20045;-64
2023/05/13 02:15:48;;;;;;;11.35;8.07;;;12.90;99.90;;;;;;5030648;28;20476;-65
2023/05/13 02:18:13;;;;;;;11.27;8.23;;;12.90;99.90;;;;;;5052809;28;20148;-65
2023/05/13 02:20:39;;;;;;;12.15;8.73;;;12.90;99.90;;;;;;5050665;28;20037;-65
2023/05/13 02:23:06;;;;;;;13.18;8.88;;;12.90;99.90;;;;;;5029523;28;20047;-65
2023/05/13 02:25:31;;;;;;;10.77;8.80;;;12.80;99.90;;;;;;5050334;28;20364;-64
2023/05/13 02:27:58;;;;;;;11.63;8.45;;;12.90;99.90;;;;;;5050751;28;20044;-65
2023/05/13 02:30:25;;;;;;;14.23;8.75;;;12.80;99.90;;;;;;5033369;28;20110;-65
2023/05/13 02:32:55;;;;;;;11.13;8.52;;;12.80;99.90;;;;;;5052295;28;20090;-65
2023/05/13 02:35:21;;;;;;;13.30;9.13;;;12.80;99.90;;;;;;5050180;28;20037;-65
2023/05/13 02:37:47;;;;;;;10.73;9.07;;;12.80;99.90;;;;;;5052343;28;20029;-65
2023/05/13 02:40:13;;;;;;;13.45;8.82;;;12.80;99.90;;;;;;5052441;28;20037;-65
2023/05/13 02:42:39;;;;;;;12.07;8.38;;;12.70;99.90;;;;;;5058298;28;20487;-65
2023/05/13 02:45:06;;;;;;;11.82;8.98;;;12.80;99.90;;;;;;5029638;28;20053;-65
2023/05/13 02:47:31;;;;;;;12.07;9.02;;;12.70;99.90;;;;;;5049353;28;20044;-65
2023/05/13 02:49:57;;;;;;;14.07;9.20;;;12.70;99.90;;;;;;5049946;28;20036;-65
2023/05/13 02:52:23;;;;;;;14.25;9.00;;;12.70;99.90;;;;;;5051595;28;20498;-66
2023/05/13 02:54:48;;;;;;;15.23;8.70;;;12.70;99.90;;;;;;5052353;28;20063;-65
2023/05/13 02:57:14;;;;;;;11.30;8.30;;;12.70;99.90;;;;;;5034002;28;20509;-66
2023/05/13 02:59:40;;;;;;;12.18;9.30;;;12.70;99.90;;;;;;5031996;28;20102;-65
2023/05/13 03:02:05;;;;;;;13.05;8.95;;;12.70;99.90;;;;;;5053022;28;20045;-65
2023/05/13 03:04:31;;;;;;;12.68;9.13;;;12.60;99.90;;;;;;5030845;28;20049;-65
2023/05/13 03:06:56;;;;;;;12.07;9.40;;;12.60;99.90;;;;;;5052235;28;20036;-65
2023/05/13 03:09:22;;;;;;;13.85;9.25;;;12.60;99.90;;;;;;5050268;28;20384;-66
2023/05/13 03:11:48;;;;;;;12.98;8.57;;;12.60;99.90;;;;;;5048252;28;20190;-65
2023/05/13 03:14:13;;;;;;;12.93;9.32;;;12.60;99.90;;;;;;5051892;28;20036;-65
2023/05/13 03:16:39;;;;;;;14.85;9.27;;;12.50;99.90;;;;;;5055349;28;20036;-65
2023/05/13 03:19:05;;;;;;;13.45;9.20;;;12.50;99.90;;;;;;5033566;28;20037;-66
2023/05/13 03:21:30;;;;;;;11.88;8.77;;;12.50;99.90;;;;;;5073852;22;20511;-79
2023/05/13 03:23:56;;;;;;;12.25;9.35;;;12.40;99.90;;;;;;5014403;28;20408;-78
2023/05/13 03:26:21;;;;;;;14.32;10.02;;;12.50;99.90;;;;;;5038343;28;20029;-78
2023/05/13 03:28:47;;;;;;;15.15;9.73;;;12.40;99.90;;;;;;5034191;28;20069;-78
2023/05/13 03:31:13;;;;;;;13.30;9.25;;;12.40;99.90;;;;;;5033047;28;20052;-78
2023/05/13 03:33:38;;;;;;;16.67;9.75;;;12.40;99.90;;;;;;5034269;28;20071;-78
2023/05/13 03:36:05;;;;;;;12.95;9.75;;;12.40;99.90;;;;;;5027957;28;20041;-77
2023/05/13 03:38:31;;;;;;;12.18;9.38;;;12.40;99.90;;;;;;5035206;28;20037;-77
2023/05/13 03:40:57;;;;;;;14.45;9.65;;;12.30;99.90;;;;;;5051461;28;20044;-77
2023/05/13 03:43:22;;;;;;;13.25;9.90;;;12.40;99.90;;;;;;5058984;28;20049;-77
2023/05/13 03:45:49;;;;;;;15.18;10.20;;;12.30;99.90;;;;;;5034936;28;20046;-77
2023/05/13 03:48:15;;;;;;;14.73;9.70;;;12.30;99.90;;;;;;5033416;28;20048;-77
2023/05/13 03:50:41;;;;;;;12.98;9.98;;;12.30;99.90;;;;;;5040350;28;20041;-77
2023/05/13 03:53:06;;;;;;;11.88;10.05;;;12.20;99.90;;;;;;5035122;28;20143;-77
2023/05/13 03:55:32;;;;;;;12.27;9.68;;;12.20;99.90;;;;;;5034193;28;20099;-77
2023/05/13 03:57:58;;;;;;;15.35;10.35;;;12.20;99.90;;;;;;5030634;28;20041;-77
2023/05/13 04:00:23;;;;;;;13.40;10.27;;;12.20;99.90;;;;;;5030089;28;20029;-77
2023/05/13 04:02:49;;;;;;;12.98;10.07;;;12.20;99.90;;;;;;5029729;28;20389;-77
2023/05/13 04:05:15;;;;;;;15.85;10.52;;;12.20;99.90;;;;;;5029632;28;20052;-77
2023/05/13 04:07:41;;;;;;;14.40;10.25;;;12.20;99.90;;;;;;5044923;28;20037;-77
2023/05/13 04:10:07;;;;;;;18.30;10.50;;;12.20;99.90;;;;;;5032141;28;20037;-77
2023/05/13 04:12:32;;;;;;;13.45;10.32;;;12.10;99.90;;;;;;5030276;28;20051;-77
2023/05/13 04:14:58;;;;;;;13.88;10.35;;;12.10;99.90;;;;;;5034919;28;20040;-77
2023/05/13 04:17:24;;;;;;;15.27;11.45;;;12.10;99.90;;;;;;5042828;28;20477;-77
2023/05/13 04:19:53;;;;;;;13.18;10.80;;;12.10;99.90;;;;;;5037949;28;20071;-77
2023/05/13 04:22:20;;;;;;;13.95;11.10;;;12.10;99.90;;;;;;5029117;28;20080;-77
2023/05/13 04:24:45;;;;;;;15.35;10.77;;;12.00;99.90;;;;;;5030265;28;20098;-77
2023/05/13 04:27:11;;;;;;;15.25;10.98;;;12.00;99.90;;;;;;5048702;28;20036;-77
2023/05/13 04:29:37;;;;;;;15.00;11.02;;;12.00;99.90;;;;;;5032071;28;20040;-76
2023/05/13 04:32:02;;;;;;;17.42;11.70;;;12.00;99.90;;;;;;5032657;28;20570;-77
2023/05/13 04:34:28;;;;;;;16.23;11.27;;;11.80;99.90;;;;;;5034314;28;20037;-77
2023/05/13 04:36:53;;;;;;;15.98;11.77;;;12.00;99.90;;;;;;5032901;28;20047;-77
2023/05/13 04:39:19;;;;;;;15.63;11.20;;;12.00;99.90;;;;;;5033182;28;20090;-77
2023/05/13 04:41:45;;;;;;;14.85;11.18;;;12.00;99.90;;;;;;5033837;28;20045;-77
2023/05/13 04:44:10;;;;;;;19.95;11.77;;;12.00;99.90;;;;;;5033354;28;20515;-77
2023/05/13 04:46:39;;;;;;;17.50;11.73;;;12.00;99.90;;;;;;5033258;28;20040;-77
2023/05/13 04:49:05;;;;;;;19.33;12.27;;;12.00;99.90;;;;;;5031309;28;20056;-77
2023/05/13 04:51:31;;;;;;;15.05;12.02;;;12.00;99.90;;;;;;5049042;28;20041;-77
2023/05/13 04:53:57;;;;;;;18.70;12.68;;;12.00;99.90;;;;;;5034335;28;20623;-77
2023/05/13 04:56:23;;;;;;;14.50;11.85;;;12.00;99.90;;;;;;5034191;28;20056;-78
2023/05/13 04:58:48;;;;;;;17.05;12.63;;;12.00;99.90;;;;;;5034526;28;20041;-77
2023/05/13 05:01:14;;;;;;;15.82;12.27;;;12.00;99.90;;;;;;5029350;28;20124;-77
2023/05/13 05:03:40;;;;;;;17.58;11.73;;;12.10;99.90;;;;;;5027694;28;20041;-77
2023/05/13 05:06:05;;;;;;;17.25;11.95;;;12.00;99.90;;;;;;5027820;28;20076;-77
2023/05/13 05:08:31;;;;;;;15.63;12.20;;;12.00;99.90;;;;;;5032212;28;20045;-77
2023/05/13 05:10:59;;;;;;;16.80;12.82;;;12.00;99.90;;;;;;5029825;28;20053;-77
2023/05/13 05:13:25;;;;;;;14.30;11.85;;;12.10;99.90;;;;;;5029210;28;20123;-77
2023/05/13 05:15:50;;;;;;;17.13;12.77;;;12.10;99.90;;;;;;5032541;28;20463;-77
2023/05/13 05:18:16;;;;;;;20.88;12.68;;;12.10;99.90;;;;;;5031662;28;20400;-76
2023/05/13 05:20:41;;;;;;;16.90;12.63;;;12.10;99.90;;;;;;5033605;28;20189;-77
2023/05/13 05:23:09;;;;;;;18.13;12.50;;;12.10;99.90;;;;;;5030715;28;20387;-77
2023/05/13 05:25:35;;;;;;;18.15;13.70;;;12.10;99.90;;;;;;5048748;28;20068;-76
2023/05/13 05:28:03;;;;;;;16.27;12.50;;;12.20;99.90;;;;;;5033178;28;20060;-76
2023/05/13 05:30:31;;;;;;;17.63;12.80;;;12.20;99.90;;;;;;5033236;28;20036;-77
2023/05/13 05:32:57;;;;;;;19.20;12.98;;;12.20;99.90;;;;;;5032967;28;20087;-76
2023/05/13 05:35:23;;;;;;;14.80;12.80;;;12.20;99.90;;;;;;5029365;28;20045;-76
2023/05/13 05:37:48;;;;;;;19.83;13.35;;;12.20;99.90;;;;;;5015571;28;20057;-77
2023/05/13 05:40:14;;;;;;;19.08;13.15;;;12.20;99.90;;;;;;5032491;28;20120;-77
2023/05/13 05:42:39;;;;;;;18.95;12.65;;;12.30;99.90;;;;;;5051121;28;20051;-76
2023/05/13 05:45:05;;;;;;;19.60;13.18;;;12.30;99.90;;;;;;5041003;28;20041;-76
2023/05/13 05:47:31;;;;;;;17.70;13.10;;;12.30;99.90;;;;;;5032159;28;20419;-76
2023/05/13 05:49:56;;;;;;;16.95;12.23;;;12.40;99.90;;;;;;5032418;28;20045;-76
2023/05/13 05:52:22;;;;;;;20.25;13.65;;;12.40;99.90;;;;;;5032723;28;20047;-76
2023/05/13 05:54:48;;;;;;;18.35;12.68;;;12.40;99.90;;;;;;5032850;28;20041;-76
2023/05/13 05:57:13;;;;;;;15.07;11.88;;;12.40;99.90;;;;;;5032689;28;20469;-76
2023/05/13 05:59:39;;;;;;;16.45;12.68;;;12.40;99.90;;;;;;5033022;28;20432;-76
2023/05/13 06:02:05;;;;;;;17.02;13.43;;;12.50;99.90;;;;;;5016614;28;20033;-79
2023/05/13 06:04:30;;;;;;;16.85;12.43;;;12.50;99.90;;;;;;5047242;28;20040;-77
2023/05/13 06:06:56;;;;;;;18.15;13.27;;;12.50;99.90;;;;;;5032854;28;20554;-76
2023/05/13 06:09:22;;;;;;;17.10;13.07;;;12.60;99.90;;;;;;5030311;28;20063;-75
2023/05/13 06:11:47;;;;;;;16.75;12.93;;;12.60;99.90;;;;;;5025692;28;20041;-76
2023/05/13 06:14:13;;;;;;;16.30;12.70;;;12.60;99.90;;;;;;5032408;28;20045;-76
2023/05/13 06:16:38;;;;;;;15.98;12.52;;;12.60;99.90;;;;;;5031603;28;20048;-76
2023/05/13 06:19:04;;;;;;;16.60;13.35;;;12.70;99.90;;;;;;5045353;28;20485;-76
2023/05/13 06:21:30;;;;;;;17.17;12.93;;;12.70;99.90;;;;;;5031318;28;20110;-76
2023/05/13 06:23:56;;;;;;;14.52;12.65;;;12.70;99.90;;;;;;5032459;28;20047;-76
2023/05/13 06:26:22;;;;;;;18.65;12.60;;;12.80;99.90;;;;;;5029307;28;20468;-76
2023/05/13 06:28:47;;;;;;;16.08;12.38;;;12.80;99.90;;;;;;5030209;28;20049;-76
2023/05/13 06:31:14;;;;;;;16.70;12.77;;;12.90;99.90;;;;;;5027729;28;20059;-76
2023/05/13 06:33:39;;;;;;;17.67;12.48;;;12.90;99.90;;;;;;5048756;28;20048;-76
2023/05/13 06:36:05;;;;;;;15.82;12.27;;;13.00;99.90;;;;;;5015927;28;20029;-76
2023/05/13 06:38:30;;;;;;;17.83;12.45;;;13.00;99.90;;;;;;5032182;28;20090;-76
2023/05/13 06:40:56;;;;;;;16.30;12.65;;;13.00;99.90;;;;;;5030308;28;20116;-77
2023/05/13 06:43:21;;;;;;;16.58;12.43;;;13.30;99.90;;;;;;5028658;28;20044;-76
2023/05/13 06:45:48;;;;;;;18.55;11.55;;;13.20;99.90;;;;;;5022734;28;20119;-76
2023/05/13 06:48:14;;;;;;;18.42;12.60;;;13.20;99.90;;;;;;5045852;28;20041;-76
2023/05/13 06:50:40;;;;;;;13.95;11.68;;;13.20;99.90;;;;;;5027473;28;20045;-75
2023/05/13 06:53:06;;;;;;;14.65;12.30;;;13.30;99.90;;;;;;5031989;28;20516;-76
2023/05/13 06:55:31;;;;;;;16.77;12.45;;;13.30;99.90;;;;;;5048850;28;20137;-76
2023/05/13 06:57:57;;;;;;;15.88;12.10;;;13.30;99.90;;;;;;5031007;28;20039;-76
2023/05/13 07:00:22;;;;;;;15.13;12.00;;;13.30;99.90;;;;;;5019305;28;20389;-75
2023/05/13 07:02:48;;;;;;;15.45;12.40;;;13.40;99.90;;;;;;5035835;28;20476;-75
2023/05/13 07:05:13;;;;;;;17.80;12.38;;;13.40;99.90;;;;;;5048816;28;20119;-75
2023/05/13 07:07:39;;;;;;;17.63;12.40;;;13.50;99.90;;;;;;5016347;28;20033;-75
2023/05/13 07:10:05;;;;;;;20.45;12.80;;;13.50;99.90;;;;;;5035922;28;20044;-75
2023/05/13 07:12:31;;;;;;;18.05;11.63;;;13.60;99.90;;;;;;5033473;28;20038;-75
2023/05/13 07:14:57;;;;;;;15.32;12.50;;;13.70;99.90;;;;;;5032892;28;20037;-76
2023/05/13 07:17:22;;;;;;;19.63;11.88;;;13.70;99.90;;;;;;5032734;28;20091;-76
2023/05/13 07:19:48;;;;;;;15.93;12.38;;;13.80;99.90;;;;;;5032541;28;20041;-76
2023/05/13 07:22:13;;;;;;;15.55;12.40;;;13.80;99.90;;;;;;5032154;28;20409;-76
2023/05/13 07:24:40;;;;;;;15.18;10.95;;;13.90;99.90;;;;;;5012485;28;20083;-75
2023/05/13 07:27:06;;;;;;;13.43;10.90;;;13.90;99.90;;;;;;5034327;28;20049;-76
2023/05/13 07:29:32;;;;;;;14.43;11.10;;;14.00;99.90;;;;;;5026036;28;20528;-76
2023/05/13 07:32:03;;;;;;;14.65;11.05;;;14.10;99.90;;;;;;5030911;28;20077;-76
2023/05/13 07:34:28;;;;;;;14.75;10.85;;;14.10;99.90;;;;;;5035295;28;20551;-76
2023/05/13 07:36:54;;;;;;;16.42;11.13;;;14.20;99.90;;;;;;5031561;28;20036;-77
2023/05/13 07:39:19;;;;;;;12.40;9.88;;;13.80;99.90;;;;;;5032269;28;20497;-77
2023/05/13 07:41:45;;;;;;;17.85;10.45;;;14.20;99.90;;;;;;5025471;28;20045;-77
2023/05/13 07:44:12;;;;;;;13.73;9.82;;;14.30;99.90;;;;;;5028431;28;20421;-76
2023/05/13 07:46:37;;;;;;;12.48;9.60;;;14.40;99.90;;;;;;5010651;28;20052;-77
2023/05/13 07:49:05;;;;;;;14.27;9.23;;;14.40;99.90;;;;;;5030588;28;20029;-77
2023/05/13 07:51:31;;;;;;;13.38;9.25;;;14.40;99.90;;;;;;5034701;28;20134;-76
2023/05/13 07:53:57;;;;;;;14.50;9.55;;;14.50;99.90;;;;;;5034951;28;20667;-76
2023/05/13 07:56:22;;;;;;;17.02;9.75;;;14.60;99.90;;;;;;5031889;28;20495;-76
2023/05/13 07:58:49;;;;;;;15.32;9.10;;;14.60;99.90;;;;;;5033380;28;20044;-76
2023/05/13 08:01:15;;;;;;;12.27;9.07;;;14.70;99.90;;;;;;5033512;28;20041;-76
2023/05/13 08:03:40;;;;;;;11.85;8.98;;;14.70;99.90;;;;;;5034834;28;20041;-76
2023/05/13 08:06:06;;;;;;;16.08;9.18;;;14.80;99.90;;;;;;5034643;28;20037;-77
2023/05/13 08:08:32;;;;;;;13.40;10.18;;;14.80;99.90;;;;;;5032985;28;20044;-77
2023/05/13 08:10:57;;;;;;;14.85;9.93;;;14.90;99.90;;;;;;5028672;28;20053;-76
2023/05/13 08:13:24;;;;;;;14.35;9.55;;;15.10;99.90;;;;;;5033521;28;20119;-76
2023/05/13 08:15:51;;;;;;;12.43;9.15;;;15.00;99.90;;;;;;5016066;28;20108;-76
2023/05/13 08:18:16;;;;;;;13.30;9.40;;;15.20;99.90;;;;;;5032930;28;20049;-76
2023/05/13 08:20:42;;;;;;;14.90;9.00;;;15.30;99.90;;;;;;5034587;28;20106;-76
2023/05/13 08:23:08;;;;;;;13.25;9.48;;;15.50;99.90;;;;;;5034404;28;20468;-76
2023/05/13 08:25:33;;;;;;;12.40;8.68;;;15.70;99.90;;;;;;5028216;28;20493;-76
2023/05/13 08:27:59;;;;;;;12.63;9.05;;;15.90;99.90;;;;;;5013341;28;20090;-76
2023/05/13 08:30:24;;;;;;;11.55;7.72;;;16.60;99.90;;;;;;5034435;28;20044;-76
2023/05/13 08:32:50;;;;;;;12.02;8.02;;;16.40;99.90;;;;;;5033358;28;20489;-76
2023/05/13 08:35:15;;;;;;;12.98;8.18;;;16.60;99.90;;;;;;5027613;28;20034;-76
2023/05/13 08:37:41;;;;;;;9.38;7.80;;;16.90;99.90;;;;;;5033732;28;20485;-76
2023/05/13 08:40:11;;;;;;;13.60;8.20;;;17.20;99.90;;;;;;5051941;28;20099;-76
2023/05/13 08:42:38;;;;;;;14.25;8.15;;;17.60;99.90;;;;;;5049422;28;20044;-76
2023/05/13 08:45:06;;;;;;;13.85;8.45;;;17.70;99.90;;;;;;5033732;28;20051;-76
2023/05/13 08:47:54;;;;;;;10.00;7.90;;;18.00;99.90;;;;;;5034155;28;20041;-76
2023/05/13 08:50:21;;;;;;;12.75;7.60;;;18.30;99.90;;;;;;5027293;28;20048;-77
2023/05/13 08:52:49;;;;;;;10.90;6.95;;;18.50;99.90;;;;;;5026273;28;20183;-77
2023/05/13 08:55:15;;;;;;;9.23;7.05;;;18.70;99.90;;;;;;5034110;28;20045;-76
2023/05/13 08:57:40;;;;;;;11.75;6.13;;;19.00;99.90;;;;;;5034419;28;20037;-76
2023/05/13 09:00:07;;;;;;;13.93;6.75;;;19.40;99.90;;;;;;5036115;28;20485;-77
2023/05/13 09:02:32;;;;;;;10.88;6.50;;;19.60;99.90;;;;;;5032355;28;20091;-77
2023/05/13 09:05:05;;;;;;;8.98;5.93;;;19.90;99.90;;;;;;5016840;28;20045;-77
2023/05/13 09:07:30;;;;;;;13.25;6.05;;;20.10;99.90;;;;;;5027263;28;20147;-76
2023/05/13 09:09:56;;;;;;;7.93;5.72;;;20.20;99.90;;;;;;5050822;28;20528;-77
2023/05/13 09:12:50;;;;;;;10.32;5.28;;;20.40;99.90;;;;;;5034431;28;20045;-76
2023/05/13 09:15:22;;;;;;;7.68;5.47;;;20.60;99.90;;;;;;5029847;28;20053;-76
2023/05/13 09:18:00;;;;;;;9.82;5.28;;;20.80;99.90;;;;;;5032391;28;20103;-76
2023/05/13 09:20:26;;;;;;;9.75;5.47;;;21.00;99.90;;;;;;5020452;28;20040;-77
2023/05/13 09:25:22;;;;;;;7.85;5.47;;;21.40;99.90;;;;;;5064185;28;20041;-63
2023/05/13 09:27:56;;;;;;;9.55;5.32;;;21.50;99.90;;;;;;5055615;28;20049;-64
2023/05/13 09:30:23;;;;;;;8.88;5.30;;;21.70;99.90;;;;;;5061523;28;20040;-64
2023/05/13 09:33:08;;;;;;;8.55;4.93;;;21.80;99.90;;;;;;5058072;28;20123;-64
2023/05/13 09:35:36;;;;;;;10.20;5.07;;;22.00;99.90;;;;;;5060894;28;20554;-64
2023/05/13 09:38:27;;;;;;;8.18;5.00;;;22.10;99.90;;;;;;5066131;28;20107;-64
2023/05/13 09:40:57;;;;;;;8.48;5.03;;;22.30;99.80;;;;;;5051496;28;20029;-64
2023/05/13 09:43:25;;;;;;;8.50;4.88;;;22.40;99.90;;;;;;5057245;28;20045;-64
2023/05/13 09:45:56;;;;;;;6.45;4.57;;;22.50;99.50;;;;;;5049846;28;20037;-64
2023/05/13 09:48:24;;;;;;;7.03;4.55;;;22.60;98.80;;;;;;5065394;28;20436;-64
2023/05/13 09:50:51;;;;;;;11.13;5.28;;;22.70;98.80;;;;;;5064036;28;20103;-64
2023/05/13 09:53:19;;;;;;;6.63;4.80;;;22.80;98.70;;;;;;5059792;28;20037;-64
2023/05/13 09:55:46;;;;;;;10.05;4.63;;;22.90;98.50;;;;;;5061029;28;20041;-64
2023/05/13 09:58:12;;;;;;;8.20;4.38;;;22.90;98.30;;;;;;5050268;28;20072;-64
2023/05/13 10:00:40;;;;;;;7.80;4.25;;;23.10;97.80;;;;;;5060014;28;20086;-64
2023/05/13 10:03:06;;;;;;;9.35;4.20;;;23.20;97.50;;;;;;5058636;28;20064;-64
2023/05/13 10:05:32;;;;;;;7.10;4.35;;;23.30;96.90;;;;;;5065682;28;20444;-64
2023/05/13 10:08:00;;;;;;;7.10;4.40;;;23.40;96.70;;;;;;5052674;28;20372;-64
2023/05/13 10:10:30;;;;;;;10.05;4.32;;;23.50;96.70;;;;;;5065700;28;20047;-64
2023/05/13 10:13:02;;;;;;;9.23;4.57;;;23.50;96.00;;;;;;5066770;28;20169;-64
2023/05/13 10:15:29;;;;;;;11.18;4.75;;;23.60;95.60;;;;;;5067742;28;20486;-64
2023/05/13 10:17:56;;;;;;;10.15;4.47;;;23.70;95.80;;;;;;5061608;28;20029;-64
2023/05/13 10:20:24;;;;;;;7.15;4.10;;;23.90;95.50;;;;;;5061214;28;20036;-64
2023/05/13 10:22:51;;;;;;;10.13;4.25;;;23.90;94.80;;;;;;5060078;28;20048;-64
2023/05/13 10:25:17;;;;;;;8.85;4.05;;;24.00;94.60;;;;;;5059306;28;20048;-63
2023/05/13 10:27:43;;;;;;;8.35;3.83;;;24.10;94.60;;;;;;5064806;28;20041;-64
2023/05/13 10:30:10;;;;;;;5.20;3.90;;;24.20;94.30;;;;;;5061806;28;20032;-64
2023/05/13 10:32:40;;;;;;;8.88;3.83;;;24.30;93.30;;;;;;5070303;28;20460;-64
2023/05/13 10:35:15;;;;;;;11.97;4.10;;;24.30;92.20;;;;;;5061150;28;20435;-64
2023/05/13 10:38:15;;;;;;;5.72;3.60;;;24.30;91.00;;;;;;5065588;28;20075;-64
2023/05/13 10:40:52;;;;;;;7.30;3.53;;;24.30;90.80;;;;;;5070127;28;20041;-64
2023/05/13 10:43:24;;;;;;;7.07;3.60;;;24.50;90.60;;;;;;5046381;28;20045;-64
2023/05/13 10:45:56;;;;;;;7.85;3.83;;;24.60;90.30;;;;;;5065432;28;20520;-64
2023/05/13 10:48:22;;;;;;;5.97;3.70;;;24.60;89.60;;;;;;5067824;28;20491;-63
2023/05/13 10:50:56;;;;;;;6.70;3.72;;;24.60;88.30;;;;;;5067468;28;20037;-64
2023/05/13 10:53:29;;;;;;;9.73;3.80;;;24.80;86.60;;;;;;5068126;28;20047;-63
2023/05/13 10:55:56;;;;;;;7.70;3.20;;;24.80;83.10;;;;;;5061174;28;20043;-64
2023/05/13 10:58:32;;;;;;;5.20;3.30;;;24.80;82.90;;;;;;5070402;28;20474;-64
2023/05/13 11:01:18;;;;;;;6.25;3.25;;;24.90;79.90;;;;;;5060873;28;20076;-64
2023/05/13 11:03:52;;;;;;;7.55;3.22;;;24.90;76.10;;;;;;5062270;28;20033;-64
2023/05/13 11:06:23;;;;;;;9.65;3.55;;;24.90;76.10;;;;;;5056636;28;20041;-64
2023/05/13 11:08:51;;;;;;;11.27;3.70;;;24.90;76.70;;;;;;5063400;28;20064;-64
2023/05/13 11:11:18;;;;;;;7.85;3.22;;;25.00;78.00;;;;;;5061612;28;20048;-64
2023/05/13 11:13:43;;;;;;;10.88;3.13;;;25.10;77.00;;;;;;5067549;28;20046;-64
2023/05/13 11:16:12;;;;;;;8.07;3.35;;;25.20;76.00;;;;;;5067456;28;20032;-63
2023/05/13 11:18:37;;;;;;;5.68;3.00;;;25.20;74.00;;;;;;5071507;28;20033;-64
2023/05/13 11:21:05;;;;;;;6.13;3.47;;;25.30;73.80;;;;;;5071643;28;20033;-64
2023/05/13 11:23:36;;;;;;;4.40;2.83;;;25.40;72.40;;;;;;5067415;28;20037;-64
2023/05/13 11:26:17;;;;;;;6.07;2.97;;;25.40;70.90;;;;;;5069072;28;20025;-63
2023/05/13 11:29:06;;;;;;;5.15;3.03;;;25.50;68.60;;;;;;5068486;28;20067;-64
2023/05/13 11:31:48;;;;;;;4.72;3.00;;;25.60;68.30;;;;;;5056351;28;20040;-63
2023/05/13 11:34:18;;;;;;;5.88;2.85;;;25.60;67.50;;;;;;5067269;28;20044;-63
2023/05/13 11:36:48;;;;;;;8.25;3.13;;;25.70;66.50;;;;;;5061180;28;20412;-63
2023/05/13 11:39:19;;;;;;;7.30;3.30;;;25.60;65.50;;;;;;5056300;28;20041;-63
2023/05/13 11:41:46;;;;;;;;;;;25.60;65.00;;;;;;5068769;28;20056;-64
2023/05/13 11:44:14;;;;;;;7.10;2.95;;;25.60;63.70;;;;;;5065176;28;19916;-63
2023/05/13 11:46:56;;;;;;;6.50;2.83;;;25.60;64.80;;;;;;5060188;28;20083;-63
2023/05/13 11:49:42;;;;;;;6.72;2.58;;;25.70;61.10;;;;;;5060674;28;20427;-64
2023/05/13 11:52:09;;;;;;;4.45;3.08;;;25.70;60.10;;;;;;5057519;28;20571;-64
2023/05/13 11:54:49;;;;;;;5.72;3.08;;;25.70;62.50;;;;;;5054865;28;20041;-63
2023/05/13 11:57:15;;;;;;;6.25;2.88;;;25.80;60.60;;;;;;5062385;28;20036;-63
2023/05/13 11:59:40;;;;;;;4.22;2.78;;;25.90;62.00;;;;;;5062534;28;20037;-63
2023/05/13 12:02:06;;;;;;;5.35;2.97;;;25.90;61.90;;;;;;5054717;28;20036;-63
2023/05/13 12:04:32;;;;;;;8.63;3.15;;;26.00;61.60;;;;;;5063044;28;20121;-63
2023/05/13 12:06:57;;;;;;;11.70;3.17;;;26.00;61.20;;;;;;5062531;28;20035;-63
2023/05/13 12:09:23;;;;;;;4.22;2.90;;;26.00;61.40;;;;;;5069807;28;20395;-63
2023/05/13 12:11:52;;;;;;;7.80;2.92;;;26.10;61.10;;;;;;5056959;28;20082;-63
2023/05/13 12:14:19;;;;;;;4.90;2.78;;;26.10;59.90;;;;;;5062659;28;20037;-63
2023/05/13 12:16:46;;;;;;;4.30;2.60;;;26.00;59.80;;;;;;5070681;28;20044;-63
2023/05/13 12:19:11;;;;;;;3.70;2.78;;;26.00;60.00;;;;;;5070065;28;20052;-63
2023/05/13 12:21:37;;;;;;;6.43;2.97;;;26.00;59.70;;;;;;5063814;28;20036;-63
2023/05/13 12:24:17;;;;;;;5.15;3.00;;;26.10;59.10;;;;;;5057843;28;20089;-63
2023/05/13 12:26:42;;;;;;;7.70;3.33;;;26.10;58.40;;;;;;5061123;28;20045;-63
2023/05/13 12:29:08;;;;;;;5.70;3.10;;;26.10;59.90;;;;;;5058839;28;20039;-63
2023/05/13 12:31:34;;;;;;;4.85;3.00;;;26.10;60.00;;;;;;5057684;28;20113;-65
2023/05/13 12:33:59;;;;;;;7.05;3.13;;;26.10;60.40;;;;;;5060325;28;20033;-65
2023/05/13 12:36:35;;;;;;;5.28;2.90;;;26.10;60.70;;;;;;5066763;28;20078;-65
2023/05/13 12:39:10;;;;;;;5.75;3.67;;;26.10;60.30;;;;;;5063284;28;20036;-65